KSBD

San Bernardino International Airport

San Bernardino, California, USA
METAR KSBD 280050Z 24012KT 7SM FEW040 26/08 A2987
Observed Flight Rules
May-28 @ 00:50 UTC (15 minutes ago) Visual Flight Rules
Wind Visibility Clouds
240° at 12 knots 7 miles
  • Few at 4,000' AGL
Temperatures Readings
Current 26°C / 79°F
Dewpoint 8°C / 46°F
Humidity 32%
Altimeter 29.87" Hg
Pressure 1012 hPa
Elevation 353
METAR KSBD 280050Z 24012KT 7SM FEW040 26/08 A2987
Observed Flight Rules
May-28 @ 00:50 UTC
(15 minutes ago)
VFR
Wind Visibility
240° at 12 knots 7 miles
Clouds
  • Few at 4,000' AGL
Temperature Dewpoint
26°C / 79°F 8°C / 46°F
Humidity Altimeter Pressure
32% 29.87" Hg 1012 hPa